Time;durP1;ratioP1;P1;durP2;ratioP2;P2;SDS_P1;SDS_P2;PMS_P1;PMS_P2;Temp;Humidity;BMP_temperature;BMP_pressure;BME280_temperature;BME280_humidity;BME280_pressure;Samples;Min_cycle;Max_cycle;Signal;HPM_P1;HPM_P2
2022/04/01 00:00:42;;;;;;;34.87;4.30;;;7.90;40.40;;;;;;5064018;28;20803;-56
2022/04/01 00:03:10;;;;;;;33.30;4.17;;;7.80;40.40;;;;;;5068129;28;20449;-55
2022/04/01 00:05:38;;;;;;;32.30;3.57;;;7.90;40.20;;;;;;5054675;28;20465;-55
2022/04/01 00:08:05;;;;;;;33.00;3.83;;;7.80;39.90;;;;;;5060135;28;20480;-56
2022/04/01 00:10:32;;;;;;;32.97;3.77;;;7.80;40.00;;;;;;5061927;28;20465;-55
2022/04/01 00:13:00;;;;;;;33.30;4.17;;;7.80;40.00;;;;;;5068514;28;20487;-55
2022/04/01 00:15:27;;;;;;;32.93;3.70;;;7.70;39.70;;;;;;5072521;28;20508;-56
2022/04/01 00:17:54;;;;;;;33.57;3.67;;;7.70;39.60;;;;;;5081171;28;20476;-54
2022/04/01 00:20:21;;;;;;;33.07;3.70;;;7.70;39.80;;;;;;5075423;28;21214;-55
2022/04/01 00:22:48;;;;;;;33.67;4.27;;;7.60;39.80;;;;;;5070496;28;20465;-55
2022/04/01 00:25:15;;;;;;;33.37;3.67;;;7.60;39.90;;;;;;5064580;28;20468;-55
2022/04/01 00:27:42;;;;;;;32.57;3.43;;;7.50;40.30;;;;;;5056364;28;20482;-55
2022/04/01 00:30:11;;;;;;;34.20;4.50;;;7.50;40.50;;;;;;5062597;28;20465;-55
2022/04/01 00:32:38;;;;;;;33.07;3.80;;;7.50;40.50;;;;;;5060286;28;20491;-57
2022/04/01 00:35:06;;;;;;;33.50;3.80;;;7.40;40.10;;;;;;5062477;28;20461;-55
2022/04/01 00:37:33;;;;;;;34.53;5.10;;;7.40;40.30;;;;;;5057681;28;20488;-57
2022/04/01 00:40:00;;;;;;;33.97;4.40;;;7.40;40.50;;;;;;5062496;28;21199;-57
2022/04/01 00:42:27;;;;;;;33.20;4.23;;;7.40;40.30;;;;;;5063498;28;20449;-57
2022/04/01 00:44:54;;;;;;;33.80;3.67;;;7.30;40.10;;;;;;5066390;28;20454;-57
2022/04/01 00:47:22;;;;;;;33.00;3.63;;;7.30;40.40;;;;;;5058450;28;20503;-56
2022/04/01 00:49:49;;;;;;;34.17;3.87;;;7.30;40.40;;;;;;5062425;28;20461;-56
2022/04/01 00:52:18;;;;;;;33.47;3.90;;;7.20;40.30;;;;;;5056031;28;20481;-55
2022/04/01 00:54:45;;;;;;;33.87;3.57;;;7.20;40.40;;;;;;5058602;28;20467;-58
2022/04/01 00:57:14;;;;;;;34.30;5.17;;;7.20;41.00;;;;;;5060483;28;20477;-55
2022/04/01 00:59:42;;;;;;;33.30;3.80;;;7.20;40.10;;;;;;5065736;28;20465;-55
2022/04/01 01:02:09;;;;;;;32.67;3.37;;;7.20;40.10;;;;;;5058502;28;20473;-55
2022/04/01 01:04:38;;;;;;;33.20;3.40;;;7.20;40.00;;;;;;5062090;28;20598;-55
2022/04/01 01:07:06;;;;;;;33.50;3.30;;;7.20;39.70;;;;;;5061012;28;21071;-56
2022/04/01 01:09:33;;;;;;;33.07;3.17;;;7.10;39.90;;;;;;5064765;28;20464;-56
2022/04/01 01:12:01;;;;;;;33.30;3.80;;;7.10;40.00;;;;;;5058354;28;20455;-56
2022/04/01 01:14:30;;;;;;;33.40;3.80;;;7.10;39.80;;;;;;5053794;28;20465;-56
2022/04/01 01:16:58;;;;;;;33.30;3.77;;;7.00;39.60;;;;;;5065074;28;20453;-57
2022/04/01 01:19:26;;;;;;;34.70;4.20;;;7.00;39.70;;;;;;5055842;28;20453;-56
2022/04/01 01:21:55;;;;;;;33.43;3.63;;;6.90;39.50;;;;;;5061396;28;20457;-56
2022/04/01 01:24:31;;;;;;;37.33;5.90;;;6.90;39.70;;;;;;5061720;28;20446;-56
2022/04/01 01:27:00;;;;;;;33.63;4.67;;;6.90;39.80;;;;;;5061440;28;20476;-55
2022/04/01 01:29:28;;;;;;;34.40;5.00;;;6.90;39.40;;;;;;5054417;28;20476;-55
2022/04/01 01:31:55;;;;;;;34.10;5.50;;;6.80;39.10;;;;;;5057282;28;20855;-55
2022/04/01 01:34:23;;;;;;;33.53;4.20;;;6.80;38.90;;;;;;5060380;28;20492;-55
2022/04/01 01:36:50;;;;;;;33.63;4.50;;;6.70;38.90;;;;;;5060092;28;20462;-57
2022/04/01 01:39:18;;;;;;;33.87;4.73;;;6.70;39.20;;;;;;5065501;28;20453;-58
2022/04/01 01:41:47;;;;;;;34.60;5.43;;;6.60;39.30;;;;;;5059690;28;20913;-56
2022/04/01 01:44:14;;;;;;;34.37;5.33;;;6.60;39.40;;;;;;5055935;28;20453;-57
2022/04/01 01:46:41;;;;;;;34.20;4.67;;;6.60;39.20;;;;;;5062320;28;20561;-57
2022/04/01 01:49:08;;;;;;;35.90;5.60;;;6.60;39.00;;;;;;5063707;28;20522;-57
2022/04/01 01:54:49;;;;;;;35.77;5.77;;;6.50;39.00;;;;;;4995825;28;20484;-57
2022/04/01 01:57:20;;;;;;;35.27;5.73;;;6.40;39.00;;;;;;5053403;28;20473;-55
2022/04/01 01:59:48;;;;;;;34.47;5.40;;;6.40;38.80;;;;;;5060339;28;21216;-57
2022/04/01 02:02:15;;;;;;;33.20;3.40;;;6.30;38.80;;;;;;5051665;28;20473;-56
2022/04/01 02:04:43;;;;;;;32.83;3.40;;;6.30;38.80;;;;;;5063036;28;20461;-57
2022/04/01 02:07:11;;;;;;;32.90;3.13;;;6.30;38.60;;;;;;5051531;28;20492;-55
2022/04/01 02:09:38;;;;;;;32.17;2.63;;;6.30;38.70;;;;;;5055415;28;20462;-56
2022/04/01 02:12:06;;;;;;;33.50;3.40;;;6.20;38.70;;;;;;5058754;28;20492;-54
2022/04/01 02:14:36;;;;;;;32.90;3.30;;;6.20;38.80;;;;;;5065649;28;20499;-56
2022/04/01 02:17:03;;;;;;;32.87;3.40;;;6.20;38.80;;;;;;5062318;28;20497;-56
2022/04/01 02:19:31;;;;;;;32.70;3.20;;;6.10;38.90;;;;;;5058462;28;20978;-55
2022/04/01 02:21:57;;;;;;;32.63;3.40;;;6.10;38.90;;;;;;5065395;28;20468;-56
2022/04/01 02:24:25;;;;;;;32.10;2.47;;;6.10;38.70;;;;;;5064708;28;20472;-56
2022/04/01 02:26:52;;;;;;;31.97;3.00;;;6.10;38.30;;;;;;5068037;28;20470;-56
2022/04/01 02:29:22;;;;;;;32.20;2.53;;;6.10;38.00;;;;;;5068512;28;20473;-57
2022/04/01 02:31:52;;;;;;;32.20;2.83;;;6.10;38.00;;;;;;5062082;28;20889;-56
2022/04/01 02:34:19;;;;;;;33.10;3.17;;;6.00;37.90;;;;;;5061515;28;21055;-57
2022/04/01 02:36:46;;;;;;;32.93;2.83;;;6.00;38.30;;;;;;5063075;28;20473;-56
2022/04/01 02:39:12;;;;;;;31.90;2.43;;;6.00;38.20;;;;;;5056587;28;20460;-55
2022/04/01 02:41:39;;;;;;;32.43;2.47;;;5.90;38.30;;;;;;5064050;28;20466;-55
2022/04/01 02:44:11;;;;;;;32.30;2.50;;;6.00;37.90;;;;;;5070036;28;20453;-55
2022/04/01 02:46:39;;;;;;;32.47;2.47;;;5.90;37.90;;;;;;5066604;28;20461;-54
2022/04/01 02:49:10;;;;;;;32.07;2.57;;;5.90;37.70;;;;;;5055224;28;20596;-55
2022/04/01 02:51:40;;;;;;;32.80;2.67;;;5.90;37.80;;;;;;5066159;28;20457;-56
2022/04/01 02:54:08;;;;;;;32.93;3.47;;;5.90;37.70;;;;;;5061727;28;20485;-56
2022/04/01 02:56:37;;;;;;;32.93;2.97;;;5.90;37.70;;;;;;5063132;28;20457;-55
2022/04/01 02:59:07;;;;;;;32.53;3.30;;;5.80;37.30;;;;;;5055937;28;20624;-55
2022/04/01 03:01:34;;;;;;;33.20;3.10;;;5.90;37.30;;;;;;5063579;28;20477;-58
2022/04/01 03:04:00;;;;;;;34.20;3.70;;;5.90;37.80;;;;;;5063249;28;20989;-55
2022/04/01 03:06:28;;;;;;;33.73;3.70;;;5.80;36.90;;;;;;5060795;28;20535;-57
2022/04/01 03:08:55;;;;;;;35.10;5.03;;;5.80;37.00;;;;;;5067470;28;20483;-57
2022/04/01 03:11:22;;;;;;;34.57;5.90;;;5.80;37.10;;;;;;5066259;28;20464;-57
2022/04/01 03:13:49;;;;;;;36.00;7.67;;;5.70;37.00;;;;;;5065613;28;21034;-56
2022/04/01 03:16:15;;;;;;;36.30;8.20;;;5.70;37.00;;;;;;5066574;28;20461;-57
2022/04/01 03:18:43;;;;;;;37.03;8.70;;;5.70;36.90;;;;;;5057792;28;20482;-57
2022/04/01 03:21:10;;;;;;;36.10;7.63;;;5.70;37.00;;;;;;5057979;28;20511;-57
2022/04/01 03:23:40;;;;;;;34.37;5.30;;;5.60;36.90;;;;;;5059731;28;20456;-57
2022/04/01 03:26:08;;;;;;;33.00;3.50;;;5.60;36.90;;;;;;5066066;28;20492;-57
2022/04/01 03:28:35;;;;;;;32.27;2.83;;;5.60;37.00;;;;;;5065022;28;20469;-58
2022/04/01 03:31:04;;;;;;;32.70;2.87;;;5.50;37.00;;;;;;5064392;28;20479;-55
2022/04/01 03:33:32;;;;;;;33.70;3.17;;;5.50;37.00;;;;;;5064003;28;20486;-55
2022/04/01 03:35:59;;;;;;;32.70;3.00;;;5.50;37.20;;;;;;5061976;28;20461;-58
2022/04/01 03:38:26;;;;;;;32.47;3.40;;;5.50;37.10;;;;;;5055997;28;20477;-56
2022/04/01 03:40:54;;;;;;;33.37;3.73;;;5.50;37.10;;;;;;5057618;28;20504;-57
2022/04/01 03:43:22;;;;;;;33.00;3.13;;;5.50;37.10;;;;;;5057062;28;20465;-57
2022/04/01 03:45:50;;;;;;;32.07;2.50;;;5.50;37.20;;;;;;5061078;28;20475;-57
2022/04/01 03:48:24;;;;;;;33.50;3.10;;;5.50;37.20;;;;;;5058731;28;20481;-57
2022/04/01 03:50:55;;;;;;;32.90;3.00;;;5.40;37.20;;;;;;5061897;28;20462;-55
2022/04/01 03:53:26;;;;;;;32.37;2.50;;;5.40;37.30;;;;;;5057129;28;20484;-55
2022/04/01 03:55:55;;;;;;;32.40;2.70;;;5.40;37.30;;;;;;5064632;28;20477;-57
2022/04/01 03:58:27;;;;;;;31.90;2.10;;;5.40;37.40;;;;;;5062970;28;20504;-56
2022/04/01 04:00:54;;;;;;;32.70;3.40;;;5.40;37.40;;;;;;5061093;28;20546;-56
2022/04/01 04:03:22;;;;;;;32.50;2.73;;;5.50;37.50;;;;;;5066182;28;20453;-56
2022/04/01 04:05:50;;;;;;;32.27;3.70;;;5.40;37.40;;;;;;5058157;28;20462;-57
2022/04/01 04:08:19;;;;;;;32.27;2.33;;;5.40;37.40;;;;;;5057752;28;20599;-57
2022/04/01 04:10:48;;;;;;;32.90;3.87;;;5.40;37.40;;;;;;5060950;28;20465;-54
2022/04/01 04:13:16;;;;;;;32.03;2.90;;;5.40;37.50;;;;;;5061057;28;20453;-55
2022/04/01 04:15:47;;;;;;;32.07;2.73;;;5.40;37.50;;;;;;5055980;28;20484;-53
2022/04/01 04:18:17;;;;;;;32.00;2.43;;;5.40;37.50;;;;;;5055654;28;20477;-55
2022/04/01 04:20:57;;;;;;;32.97;3.23;;;5.30;37.70;;;;;;5059591;28;20979;-54
2022/04/01 04:23:26;;;;;;;33.47;4.00;;;5.20;38.00;;;;;;5060018;28;20565;-54
2022/04/01 04:26:00;;;;;;;33.77;3.93;;;5.20;38.30;;;;;;5054694;28;20462;-56
2022/04/01 04:28:33;;;;;;;34.30;3.93;;;5.20;38.40;;;;;;5061125;28;21025;-56
2022/04/01 04:31:04;;;;;;;34.80;4.37;;;5.10;38.30;;;;;;5050220;28;20462;-54
2022/04/01 04:33:33;;;;;;;36.67;4.13;;;5.10;38.30;;;;;;5053115;28;20909;-55
2022/04/01 04:36:04;;;;;;;34.00;3.47;;;5.10;38.20;;;;;;5058458;28;20469;-55
2022/04/01 04:38:36;;;;;;;36.17;4.27;;;5.00;38.30;;;;;;5064894;28;20507;-53
2022/04/01 04:41:04;;;;;;;34.73;4.00;;;5.00;38.50;;;;;;5053943;28;20982;-53
2022/04/01 04:43:33;;;;;;;34.83;4.50;;;5.00;38.40;;;;;;5061562;28;20459;-54
2022/04/01 04:46:00;;;;;;;34.30;4.20;;;4.90;38.50;;;;;;5062667;28;20462;-53
2022/04/01 04:48:28;;;;;;;33.57;3.60;;;4.90;39.20;;;;;;5057113;28;20479;-54
2022/04/01 04:50:58;;;;;;;34.03;3.80;;;4.90;38.60;;;;;;5061111;28;20469;-53
2022/04/01 04:53:28;;;;;;;34.47;3.67;;;4.90;38.80;;;;;;5063207;28;20506;-52
2022/04/01 04:55:55;;;;;;;34.30;4.33;;;4.90;38.90;;;;;;5063627;28;20491;-56
2022/04/01 04:58:23;;;;;;;34.30;4.20;;;4.90;38.80;;;;;;5058428;28;20477;-55
2022/04/01 05:00:58;;;;;;;33.13;3.50;;;4.90;38.90;;;;;;5059816;28;21017;-55
2022/04/01 05:03:42;;;;;;;34.40;4.03;;;4.90;39.00;;;;;;5062870;28;20464;-54
2022/04/01 05:06:12;;;;;;;34.37;3.90;;;4.90;39.20;;;;;;5062492;28;20469;-55
2022/04/01 05:08:50;;;;;;;36.77;4.30;;;5.00;38.90;;;;;;5062065;28;20487;-55
2022/04/01 05:11:25;;;;;;;34.73;3.70;;;5.00;39.00;;;;;;5064703;28;20488;-55
2022/04/01 05:13:59;;;;;;;33.73;4.60;;;5.00;38.90;;;;;;5061551;28;20484;-54
2022/04/01 05:16:32;;;;;;;34.00;3.60;;;5.10;38.80;;;;;;5067094;28;20490;-55
2022/04/01 05:19:04;;;;;;;35.03;4.67;;;5.10;38.90;;;;;;5061344;28;20477;-55
2022/04/01 05:21:41;;;;;;;33.03;3.43;;;5.00;38.60;;;;;;5056369;28;20461;-55
2022/04/01 05:24:12;;;;;;;33.63;3.77;;;5.00;38.70;;;;;;5051831;28;20484;-55
2022/04/01 05:26:42;;;;;;;33.90;4.17;;;5.10;38.50;;;;;;5055415;28;20462;-52
2022/04/01 05:29:13;;;;;;;34.10;3.77;;;5.00;38.60;;;;;;5055322;28;20453;-55
2022/04/01 05:31:46;;;;;;;34.60;4.00;;;5.00;38.50;;;;;;5063327;28;20465;-56
2022/04/01 05:34:20;;;;;;;34.30;4.53;;;5.00;38.60;;;;;;5056243;28;20504;-53
2022/04/01 05:36:50;;;;;;;37.57;5.00;;;5.00;38.60;;;;;;5055304;28;20463;-54
2022/04/01 05:39:17;;;;;;;38.53;4.80;;;5.00;38.60;;;;;;5057231;28;20484;-53
2022/04/01 05:41:45;;;;;;;34.20;4.70;;;4.90;38.80;;;;;;5057161;28;20464;-56
2022/04/01 05:44:13;;;;;;;36.97;6.30;;;4.90;38.70;;;;;;5062608;28;21170;-53
2022/04/01 05:46:42;;;;;;;37.97;6.43;;;4.90;38.80;;;;;;5059994;28;20470;-51
2022/04/01 05:49:10;;;;;;;41.90;8.90;;;4.90;38.90;;;;;;5050156;28;20461;-53
2022/04/01 05:51:38;;;;;;;39.30;7.00;;;4.90;38.90;;;;;;5067173;28;20469;-53
2022/04/01 05:54:06;;;;;;;38.90;8.00;;;4.90;38.90;;;;;;5061604;28;20480;-53
2022/04/01 05:56:35;;;;;;;40.67;7.90;;;4.90;38.90;;;;;;5059380;28;20470;-53
2022/04/01 05:59:02;;;;;;;41.30;8.20;;;5.00;38.60;;;;;;5057803;28;20488;-52
2022/04/01 06:01:40;;;;;;;38.63;7.17;;;5.00;38.70;;;;;;5054198;28;20477;-54
2022/04/01 06:04:47;;;;;;;35.43;4.90;;;5.00;39.40;;;;;;5060626;28;20704;-55
2022/04/01 06:07:28;;;;;;;38.80;6.47;;;5.00;38.90;;;;;;5052605;28;20484;-53
2022/04/01 06:10:05;;;;;;;35.10;5.20;;;5.00;39.00;;;;;;5058259;28;21055;-56
2022/04/01 06:12:39;;;;;;;33.37;3.40;;;5.00;39.00;;;;;;5057280;28;20462;-55
2022/04/01 06:15:14;;;;;;;34.27;3.70;;;5.10;39.10;;;;;;5065002;28;20527;-55
2022/04/01 06:17:48;;;;;;;33.43;3.93;;;5.10;38.90;;;;;;5051502;28;20542;-54
2022/04/01 06:20:18;;;;;;;35.03;3.20;;;5.20;38.90;;;;;;5056289;28;20465;-54
2022/04/01 06:22:50;;;;;;;33.40;4.00;;;5.30;38.80;;;;;;5058801;28;20461;-58
2022/04/01 06:25:20;;;;;;;32.77;4.20;;;5.30;38.70;;;;;;5057302;28;20481;-57
2022/04/01 06:27:48;;;;;;;33.70;3.97;;;5.40;38.60;;;;;;5042454;28;20489;-57
2022/04/01 06:30:17;;;;;;;32.53;3.27;;;5.40;38.40;;;;;;5051929;28;20457;-57
2022/04/01 06:32:53;;;;;;;34.37;4.53;;;5.50;38.40;;;;;;5053090;28;20980;-57
2022/04/01 06:35:27;;;;;;;32.97;4.10;;;5.50;38.40;;;;;;5054341;28;20653;-56
2022/04/01 06:37:58;;;;;;;34.97;3.43;;;5.60;38.10;;;;;;5058295;28;20484;-54
2022/04/01 06:40:29;;;;;;;32.87;3.73;;;5.70;37.90;;;;;;5051117;28;20945;-54
2022/04/01 06:42:57;;;;;;;32.50;3.90;;;5.80;37.70;;;;;;5052370;28;20469;-58
2022/04/01 06:45:24;;;;;;;33.00;3.80;;;5.80;37.60;;;;;;5050181;28;20477;-55
2022/04/01 06:47:51;;;;;;;37.90;4.83;;;5.90;37.70;;;;;;5052339;28;20997;-52
2022/04/01 06:50:20;;;;;;;34.83;4.40;;;5.90;37.30;;;;;;5061716;28;20809;-55
2022/04/01 06:52:49;;;;;;;33.70;3.67;;;6.00;37.20;;;;;;5069618;28;20470;-53
2022/04/01 06:55:16;;;;;;;32.90;3.70;;;6.00;37.40;;;;;;5068118;28;21025;-51
2022/04/01 06:57:42;;;;;;;33.17;3.70;;;6.00;37.20;;;;;;5065032;28;20484;-54
2022/04/01 07:00:13;;;;;;;32.90;4.27;;;6.10;37.00;;;;;;5052028;28;20519;-55
2022/04/01 07:02:40;;;;;;;33.03;3.20;;;6.10;36.90;;;;;;5055634;28;20464;-53
2022/04/01 07:05:08;;;;;;;32.10;2.80;;;6.20;36.60;;;;;;5057478;28;20464;-55
2022/04/01 07:07:35;;;;;;;32.60;3.60;;;6.20;36.50;;;;;;5057047;28;20484;-55
2022/04/01 07:10:04;;;;;;;32.60;3.37;;;6.20;36.40;;;;;;5054561;28;20465;-53
2022/04/01 07:12:32;;;;;;;34.00;3.37;;;6.20;36.50;;;;;;5058628;28;21004;-56
2022/04/01 07:14:59;;;;;;;32.10;3.33;;;6.30;36.50;;;;;;5062903;28;20487;-55
2022/04/01 07:17:26;;;;;;;32.03;3.20;;;6.30;36.50;;;;;;5056867;28;20491;-57
2022/04/01 07:19:53;;;;;;;33.40;3.40;;;6.40;36.30;;;;;;5055113;28;20507;-54
2022/04/01 07:22:20;;;;;;;32.40;3.37;;;6.50;36.90;;;;;;5055946;28;20469;-54
2022/04/01 07:24:46;;;;;;;32.10;3.27;;;6.60;36.00;;;;;;5063029;28;20461;-55
2022/04/01 07:27:14;;;;;;;32.00;3.07;;;6.60;36.10;;;;;;5060001;28;20830;-56
2022/04/01 07:29:41;;;;;;;32.00;2.77;;;6.60;35.80;;;;;;5055892;28;20466;-55
2022/04/01 07:34:52;;;;;;;32.10;3.37;;;6.70;35.90;;;;;;5059460;28;20606;-57
2022/04/01 07:37:21;;;;;;;32.00;3.53;;;6.80;35.60;;;;;;5056669;28;20486;-56
2022/04/01 07:39:48;;;;;;;32.10;3.40;;;6.80;35.50;;;;;;5063648;28;20465;-56
2022/04/01 07:42:18;;;;;;;32.93;3.40;;;6.90;35.50;;;;;;5068281;28;20465;-55
2022/04/01 07:44:44;;;;;;;33.00;3.77;;;7.00;35.20;;;;;;5064567;28;20462;-56
2022/04/01 07:47:14;;;;;;;32.60;3.60;;;7.00;34.80;;;;;;5065821;28;21103;-53
2022/04/01 07:49:41;;;;;;;32.47;3.70;;;7.00;35.00;;;;;;5064784;28;20488;-56
2022/04/01 07:52:09;;;;;;;32.67;4.33;;;7.00;35.10;;;;;;5050281;28;20469;-56
2022/04/01 07:54:36;;;;;;;33.10;4.13;;;7.00;35.30;;;;;;5057064;28;20528;-54
2022/04/01 07:57:04;;;;;;;33.00;4.10;;;7.00;35.30;;;;;;5059667;28;21242;-56
2022/04/01 07:59:32;;;;;;;32.50;3.40;;;7.00;35.50;;;;;;5055726;28;20461;-55
2022/04/01 08:01:59;;;;;;;33.10;3.67;;;7.10;35.30;;;;;;5058891;28;20865;-55
2022/04/01 08:04:26;;;;;;;33.03;4.43;;;7.00;35.30;;;;;;5058193;28;20465;-55
2022/04/01 08:06:54;;;;;;;32.97;4.27;;;7.10;35.10;;;;;;5059211;28;20454;-55
2022/04/01 08:09:20;;;;;;;32.17;3.20;;;7.10;35.00;;;;;;5055781;28;20460;-55
2022/04/01 08:11:48;;;;;;;32.93;3.37;;;7.00;35.00;;;;;;5056457;28;20461;-55
2022/04/01 08:14:14;;;;;;;31.90;2.70;;;7.00;34.90;;;;;;5062770;28;20951;-55
2022/04/01 08:16:42;;;;;;;33.00;3.10;;;7.00;35.00;;;;;;5051726;28;20994;-55
2022/04/01 08:19:09;;;;;;;33.40;4.10;;;7.00;35.10;;;;;;5057690;28;20465;-54
2022/04/01 08:21:36;;;;;;;34.00;4.73;;;7.00;35.20;;;;;;5060252;28;20564;-54
2022/04/01 08:24:04;;;;;;;34.50;4.80;;;7.00;35.10;;;;;;5060381;28;20501;-54
2022/04/01 08:26:30;;;;;;;36.57;5.60;;;7.00;35.20;;;;;;5064065;28;20445;-53
2022/04/01 08:28:57;;;;;;;41.37;7.93;;;7.00;35.20;;;;;;5059811;28;20497;-55
2022/04/01 08:31:25;;;;;;;37.47;5.10;;;6.90;35.20;;;;;;5064292;28;21179;-55
2022/04/01 08:33:54;;;;;;;35.60;3.60;;;6.90;35.30;;;;;;5059852;28;20457;-55
2022/04/01 08:36:21;;;;;;;33.03;4.03;;;6.90;35.40;;;;;;5055026;28;20560;-56
2022/04/01 08:38:48;;;;;;;31.10;2.37;;;6.90;35.30;;;;;;5063319;28;20483;-57
2022/04/01 08:41:17;;;;;;;31.30;2.17;;;6.90;35.30;;;;;;5054639;28;20483;-59
2022/04/01 08:43:47;;;;;;;32.90;3.30;;;6.80;34.90;;;;;;5057838;28;20453;-56
2022/04/01 08:46:15;;;;;;;32.10;2.90;;;6.80;35.00;;;;;;5053074;28;20465;-58
2022/04/01 08:48:43;;;;;;;35.83;3.00;;;6.80;35.20;;;;;;5063454;28;20977;-56
2022/04/01 08:51:13;;;;;;;33.20;3.20;;;6.80;35.40;;;;;;5062495;28;20459;-59
2022/04/01 08:53:43;;;;;;;32.87;4.00;;;6.70;35.50;;;;;;5058686;28;20453;-61
2022/04/01 08:56:10;;;;;;;32.23;2.83;;;6.70;35.60;;;;;;5059551;28;20550;-60
2022/04/01 08:58:37;;;;;;;32.70;3.40;;;6.70;35.60;;;;;;5057687;28;20478;-60
2022/04/01 09:01:05;;;;;;;32.50;3.00;;;6.70;35.60;;;;;;5062746;28;21021;-59
2022/04/01 09:03:34;;;;;;;32.10;3.30;;;6.70;35.90;;;;;;5057082;28;20495;-60
2022/04/01 09:06:03;;;;;;;32.37;3.97;;;6.70;35.70;;;;;;5060638;28;20493;-56
2022/04/01 09:08:35;;;;;;;32.17;3.03;;;6.70;35.50;;;;;;5057900;28;20485;-55
2022/04/01 09:11:04;;;;;;;31.90;3.27;;;6.70;35.00;;;;;;5053689;28;20466;-55
2022/04/01 09:13:34;;;;;;;32.20;4.00;;;6.60;35.00;;;;;;5057060;28;20461;-55
2022/04/01 09:16:02;;;;;;;32.30;3.57;;;6.60;34.90;;;;;;5060488;28;20480;-55
2022/04/01 09:18:44;;;;;;;31.97;3.20;;;6.50;35.10;;;;;;5058541;28;20489;-56
2022/04/01 09:21:12;;;;;;;31.93;2.80;;;6.40;35.70;;;;;;5059623;28;21146;-55
2022/04/01 09:23:49;;;;;;;32.07;3.20;;;6.40;35.70;;;;;;5061059;28;20469;-54
2022/04/01 09:26:21;;;;;;;31.93;2.87;;;6.30;35.70;;;;;;5057252;28;20990;-55
2022/04/01 09:28:50;;;;;;;32.70;3.10;;;6.30;35.70;;;;;;5064839;28;20530;-55
2022/04/01 09:31:18;;;;;;;32.10;2.50;;;6.30;35.60;;;;;;5061204;28;20485;-56
2022/04/01 09:33:47;;;;;;;33.40;2.87;;;6.20;35.80;;;;;;5058675;28;20465;-54
2022/04/01 09:36:17;;;;;;;32.97;2.63;;;6.20;36.10;;;;;;5056975;28;20477;-54
2022/04/01 09:38:56;;;;;;;31.97;2.73;;;6.20;36.20;;;;;;5057332;28;20488;-56
2022/04/01 09:41:33;;;;;;;31.70;2.80;;;6.10;36.30;;;;;;5060483;28;20484;-56
2022/04/01 09:44:06;;;;;;;32.00;2.90;;;6.20;35.90;;;;;;5059395;28;21040;-55
2022/04/01 09:46:34;;;;;;;32.17;2.93;;;6.20;35.90;;;;;;5060633;28;20469;-55
2022/04/01 09:49:01;;;;;;;32.90;3.27;;;6.20;35.80;;;;;;5064802;28;20476;-55
2022/04/01 09:51:31;;;;;;;32.23;3.20;;;6.20;35.50;;;;;;5062075;28;20466;-56
2022/04/01 09:54:03;;;;;;;31.90;3.10;;;6.20;35.90;;;;;;5060723;28;20978;-55
2022/04/01 09:56:37;;;;;;;31.70;2.40;;;6.30;35.90;;;;;;5054735;28;20477;-55
2022/04/01 09:59:05;;;;;;;31.47;2.70;;;6.30;35.30;;;;;;5057424;28;20484;-55
2022/04/01 10:01:33;;;;;;;31.73;2.60;;;6.30;35.30;;;;;;5061578;28;20477;-55
2022/04/01 10:04:00;;;;;;;32.20;3.50;;;6.30;35.60;;;;;;5065534;28;20461;-55
2022/04/01 10:06:29;;;;;;;31.67;2.70;;;6.30;35.40;;;;;;5057263;28;20463;-55
2022/04/01 10:08:57;;;;;;;31.43;2.30;;;6.40;35.30;;;;;;5058125;28;20512;-55
2022/04/01 10:11:27;;;;;;;31.63;2.47;;;6.40;35.20;;;;;;5056641;28;20469;-55
2022/04/01 10:13:54;;;;;;;31.80;3.03;;;6.30;35.50;;;;;;5062051;28;20461;-54
2022/04/01 10:16:22;;;;;;;32.00;3.10;;;6.30;35.50;;;;;;5059365;28;20480;-55
2022/04/01 10:18:49;;;;;;;32.07;3.47;;;6.30;35.70;;;;;;5064463;28;20473;-54
2022/04/01 10:21:19;;;;;;;31.40;2.50;;;6.30;35.50;;;;;;5066643;28;20468;-54
2022/04/01 10:23:52;;;;;;;31.43;2.80;;;6.30;35.20;;;;;;5060747;28;20523;-55
2022/04/01 10:26:21;;;;;;;32.03;2.53;;;6.30;35.30;;;;;;5065315;28;20476;-54
2022/04/01 10:28:52;;;;;;;32.07;3.00;;;6.30;35.40;;;;;;5063816;28;20469;-54
2022/04/01 10:31:20;;;;;;;31.60;2.37;;;6.20;35.40;;;;;;5063747;28;20503;-53
2022/04/01 10:33:48;;;;;;;31.30;2.30;;;6.20;35.40;;;;;;5062298;28;20540;-54
2022/04/01 10:36:16;;;;;;;31.60;2.47;;;6.20;35.60;;;;;;5065973;28;20477;-54
2022/04/01 10:38:43;;;;;;;32.37;2.47;;;6.20;35.50;;;;;;5066774;28;20481;-53
2022/04/01 10:41:12;;;;;;;31.90;2.33;;;6.10;35.80;;;;;;5064797;28;20472;-55
2022/04/01 10:43:41;;;;;;;32.17;2.90;;;6.00;36.10;;;;;;5064693;28;20892;-55
2022/04/01 10:46:12;;;;;;;32.10;3.03;;;6.00;36.20;;;;;;5064729;28;20453;-54
2022/04/01 10:51:37;;;;;;;32.07;3.00;;;6.10;36.40;;;;;;5060867;28;20452;-54
2022/04/01 10:54:24;;;;;;;32.63;3.63;;;6.00;36.50;;;;;;5060612;28;20457;-54
2022/04/01 10:56:57;;;;;;;31.93;3.13;;;6.10;36.60;;;;;;5062295;28;20576;-55
2022/04/01 10:59:25;;;;;;;33.40;3.60;;;6.10;36.50;;;;;;5067159;28;20492;-55
2022/04/01 11:02:07;;;;;;;33.00;4.37;;;6.20;36.40;;;;;;5056070;28;20519;-55
2022/04/01 11:04:37;;;;;;;32.50;3.80;;;6.20;36.70;;;;;;5064654;28;20476;-54
2022/04/01 11:07:06;;;;;;;32.80;3.70;;;6.20;37.20;;;;;;5062483;28;20998;-55
2022/04/01 11:09:45;;;;;;;32.43;3.20;;;6.20;36.10;;;;;;5062912;28;20545;-55
2022/04/01 11:12:32;;;;;;;32.50;3.53;;;6.10;36.20;;;;;;5060784;28;20456;-58
2022/04/01 11:15:27;;;;;;;32.87;3.57;;;6.10;36.10;;;;;;5062605;28;20503;-61
2022/04/01 11:18:09;;;;;;;32.67;3.50;;;6.10;36.40;;;;;;5060441;28;21010;-59
2022/04/01 11:20:39;;;;;;;32.90;4.13;;;6.10;37.10;;;;;;5056868;28;21006;-57
2022/04/01 11:23:14;;;;;;;31.80;2.67;;;6.20;37.10;;;;;;5059013;28;20465;-58
2022/04/01 11:25:58;;;;;;;31.77;3.10;;;6.20;36.40;;;;;;5062779;28;20456;-59
2022/04/01 11:28:27;;;;;;;32.33;3.50;;;6.40;36.10;;;;;;5059073;28;20524;-59
2022/04/01 11:31:08;;;;;;;33.10;4.40;;;6.50;35.60;;;;;;5055758;28;20485;-58
2022/04/01 11:33:37;;;;;;;34.07;5.57;;;6.50;35.40;;;;;;5058663;28;20554;-56
2022/04/01 11:36:05;;;;;;;33.20;4.50;;;6.60;35.50;;;;;;5059692;28;20489;-58
2022/04/01 11:38:32;;;;;;;33.00;4.30;;;6.60;35.30;;;;;;5061222;28;21009;-58
2022/04/01 11:41:01;;;;;;;33.00;3.90;;;6.70;35.20;;;;;;5059046;28;20469;-59
2022/04/01 11:43:28;;;;;;;33.03;5.30;;;6.80;34.90;;;;;;5054405;28;20496;-60
2022/04/01 11:45:58;;;;;;;32.10;3.30;;;6.90;34.60;;;;;;5058350;28;20552;-60
2022/04/01 11:48:27;;;;;;;31.57;2.50;;;6.90;34.50;;;;;;5057942;28;20533;-58
2022/04/01 11:50:58;;;;;;;32.10;3.67;;;7.00;34.20;;;;;;5055506;28;20458;-59
2022/04/01 11:53:27;;;;;;;31.90;3.20;;;7.10;34.20;;;;;;5061535;28;20453;-58
2022/04/01 11:55:55;;;;;;;31.63;3.00;;;7.20;33.70;;;;;;5057235;28;20496;-58
2022/04/01 11:58:22;;;;;;;31.30;2.57;;;7.30;33.60;;;;;;5066518;28;20485;-56
2022/04/01 12:00:49;;;;;;;31.47;2.40;;;7.30;33.40;;;;;;5061636;28;20472;-59
2022/04/01 12:03:18;;;;;;;32.03;3.57;;;7.40;33.10;;;;;;5052498;28;20470;-58
2022/04/01 12:05:46;;;;;;;31.60;2.63;;;7.40;32.80;;;;;;5062572;28;20465;-58
2022/04/01 12:11:02;;;;;;;31.40;2.80;;;7.50;32.80;;;;;;5059334;28;20475;-57
2022/04/01 12:13:31;;;;;;;31.80;3.73;;;7.60;33.00;;;;;;5061117;28;20584;-56
2022/04/01 12:15:59;;;;;;;31.90;3.30;;;7.60;32.50;;;;;;5058465;28;20525;-57
2022/04/01 12:18:28;;;;;;;31.40;2.80;;;7.60;32.50;;;;;;5054857;28;21026;-59
2022/04/01 12:20:57;;;;;;;31.83;2.90;;;7.60;32.80;;;;;;5059848;28;21029;-58
2022/04/01 12:23:26;;;;;;;31.70;2.73;;;7.70;32.70;;;;;;5056426;28;20480;-58
2022/04/01 12:25:55;;;;;;;31.27;2.50;;;7.70;32.70;;;;;;5061079;28;20462;-58
2022/04/01 12:28:25;;;;;;;32.33;4.27;;;7.80;32.70;;;;;;5057077;28;20473;-58
2022/04/01 12:30:54;;;;;;;31.53;2.33;;;7.80;32.80;;;;;;5064051;28;20469;-59
2022/04/01 12:33:24;;;;;;;31.30;2.63;;;7.90;33.10;;;;;;5058421;28;20460;-58
2022/04/01 12:35:57;;;;;;;32.67;2.83;;;8.00;33.00;;;;;;5057594;28;20552;-58
2022/04/01 12:38:26;;;;;;;31.50;4.03;;;8.00;32.50;;;;;;5048187;28;20492;-57
2022/04/01 12:40:55;;;;;;;32.20;3.20;;;8.00;32.20;;;;;;5052530;28;20466;-57
2022/04/01 12:43:29;;;;;;;31.77;2.50;;;7.90;31.90;;;;;;5055429;28;20548;-58
2022/04/01 12:46:00;;;;;;;31.67;3.17;;;8.10;32.70;;;;;;5054728;28;20453;-58
2022/04/01 12:48:28;;;;;;;32.40;2.90;;;8.20;32.00;;;;;;5056343;28;20973;-58
2022/04/01 12:50:57;;;;;;;31.30;2.50;;;8.30;31.40;;;;;;5063361;28;21023;-58
2022/04/01 12:53:26;;;;;;;31.60;3.00;;;8.40;31.20;;;;;;5056284;28;20465;-58
2022/04/01 12:55:53;;;;;;;31.07;2.60;;;8.30;31.10;;;;;;5064121;28;20469;-57
2022/04/01 12:58:22;;;;;;;31.30;2.30;;;8.30;31.20;;;;;;5052347;28;20483;-56
2022/04/01 13:00:49;;;;;;;31.30;2.10;;;8.40;31.10;;;;;;5051413;28;20461;-57
2022/04/01 13:03:16;;;;;;;31.50;3.63;;;8.50;31.40;;;;;;5058495;28;21014;-58
2022/04/01 13:05:43;;;;;;;30.90;2.17;;;8.60;31.10;;;;;;5060148;28;20465;-56
2022/04/01 13:08:10;;;;;;;31.33;2.10;;;8.60;31.10;;;;;;5060747;28;20875;-58
2022/04/01 13:10:38;;;;;;;32.80;2.60;;;8.50;31.20;;;;;;5066950;28;20487;-58